TAF Text Data
IDs:
Format:
Raw Decoded Include METAR

Data at: 0508 UTC 03 Jul 2022

METAR for:KTOB (Dodge Center Arpt, MN, US)
Text:KTOB 030455Z AUTO 11003KT 10SM 16/13 A3009 RMK AO2
Temperature: 16.0°C ( 61°F)
Dewpoint: 13.0°C ( 55°F) [RH = 82%]
Pressure (altimeter):30.09 inches Hg (1019.0 mb)
Winds:from the ESE (110 degrees) at 3 MPH (3 knots; 1.5 m/s)
Visibility:10 or more sm (16+ km)
QC Flag:automated observation with no human augmentation

TAF for:KTOB (Dodge Center Arpt, MN, US)
Text:No data found